sensor_id;sensor_type;location;lat;lon;timestamp;P1;durP1;ratioP1;P2;durP2;ratioP2
14358;SDS011;7263;49.418;11.064;2024-03-23T00:53:36;5.73;;;4.80;;
14358;SDS011;7263;49.418;11.064;2024-03-23T00:56:03;5.07;;;4.40;;
14358;SDS011;7263;49.418;11.064;2024-03-23T00:58:32;6.73;;;5.07;;
14358;SDS011;7263;49.418;11.064;2024-03-23T01:01:08;5.40;;;4.53;;
14358;SDS011;7263;49.418;11.064;2024-03-23T01:03:34;6.87;;;4.67;;
14358;SDS011;7263;49.418;11.064;2024-03-23T01:06:01;6.73;;;4.63;;
14358;SDS011;7263;49.418;11.064;2024-03-23T01:08:36;7.73;;;4.83;;
14358;SDS011;7263;49.418;11.064;2024-03-23T01:11:13;5.20;;;4.70;;
14358;SDS011;7263;49.418;11.064;2024-03-23T01:13:38;5.20;;;4.70;;
14358;SDS011;7263;49.418;11.064;2024-03-23T01:16:08;7.17;;;4.53;;
14358;SDS011;7263;49.418;11.064;2024-03-23T01:18:37;7.60;;;5.17;;
14358;SDS011;7263;49.418;11.064;2024-03-23T01:21:04;5.97;;;4.63;;
14358;SDS011;7263;49.418;11.064;2024-03-23T01:23:37;5.83;;;4.80;;
14358;SDS011;7263;49.418;11.064;2024-03-23T01:26:04;6.33;;;4.80;;
14358;SDS011;7263;49.418;11.064;2024-03-23T01:28:30;5.77;;;4.67;;
14358;SDS011;7263;49.418;11.064;2024-03-23T01:30:59;6.10;;;4.93;;
14358;SDS011;7263;49.418;11.064;2024-03-23T01:33:25;6.07;;;4.73;;
14358;SDS011;7263;49.418;11.064;2024-03-23T01:35:52;5.43;;;4.47;;
14358;SDS011;7263;49.418;11.064;2024-03-23T01:38:19;5.10;;;4.33;;
14358;SDS011;7263;49.418;11.064;2024-03-23T01:40:49;6.83;;;4.90;;
14358;SDS011;7263;49.418;11.064;2024-03-23T01:43:18;6.57;;;4.87;;
14358;SDS011;7263;49.418;11.064;2024-03-23T01:45:45;5.60;;;4.47;;
14358;SDS011;7263;49.418;11.064;2024-03-23T01:48:14;5.40;;;4.80;;
14358;SDS011;7263;49.418;11.064;2024-03-23T01:50:41;6.83;;;4.63;;
14358;SDS011;7263;49.418;11.064;2024-03-23T01:53:07;6.30;;;5.17;;
14358;SDS011;7263;49.418;11.064;2024-03-23T01:55:38;5.93;;;4.67;;
14358;SDS011;7263;49.418;11.064;2024-03-23T01:58:11;7.27;;;5.13;;
14358;SDS011;7263;49.418;11.064;2024-03-23T02:00:41;5.57;;;4.73;;
14358;SDS011;7263;49.418;11.064;2024-03-23T02:03:24;8.20;;;5.10;;
14358;SDS011;7263;49.418;11.064;2024-03-23T02:05:52;5.97;;;4.93;;
14358;SDS011;7263;49.418;11.064;2024-03-23T02:08:22;8.67;;;4.60;;
14358;SDS011;7263;49.418;11.064;2024-03-23T02:10:49;4.87;;;4.37;;
14358;SDS011;7263;49.418;11.064;2024-03-23T02:13:17;5.83;;;4.23;;
14358;SDS011;7263;49.418;11.064;2024-03-23T02:15:47;4.70;;;4.20;;
14358;SDS011;7263;49.418;11.064;2024-03-23T02:18:16;5.50;;;4.53;;
14358;SDS011;7263;49.418;11.064;2024-03-23T02:20:54;6.63;;;5.03;;
14358;SDS011;7263;49.418;11.064;2024-03-23T02:23:27;7.00;;;4.90;;
14358;SDS011;7263;49.418;11.064;2024-03-23T02:25:57;6.73;;;4.57;;
14358;SDS011;7263;49.418;11.064;2024-03-23T02:28:25;7.97;;;4.70;;
14358;SDS011;7263;49.418;11.064;2024-03-23T02:30:55;5.00;;;4.27;;
14358;SDS011;7263;49.418;11.064;2024-03-23T02:33:24;6.10;;;4.60;;
14358;SDS011;7263;49.418;11.064;2024-03-23T02:35:59;6.93;;;4.73;;
14358;SDS011;7263;49.418;11.064;2024-03-23T02:38:24;6.13;;;4.63;;
14358;SDS011;7263;49.418;11.064;2024-03-23T02:40:53;5.60;;;4.43;;
14358;SDS011;7263;49.418;11.064;2024-03-23T02:43:19;5.43;;;4.60;;
14358;SDS011;7263;49.418;11.064;2024-03-23T02:45:46;8.03;;;4.70;;
14358;SDS011;7263;49.418;11.064;2024-03-23T02:48:12;6.10;;;4.90;;
14358;SDS011;7263;49.418;11.064;2024-03-23T02:50:42;6.03;;;4.37;;
14358;SDS011;7263;49.418;11.064;2024-03-23T02:53:07;5.43;;;4.33;;
14358;SDS011;7263;49.418;11.064;2024-03-23T02:55:34;5.27;;;4.50;;
14358;SDS011;7263;49.418;11.064;2024-03-23T02:58:05;8.40;;;4.70;;
14358;SDS011;7263;49.418;11.064;2024-03-23T03:00:32;8.67;;;4.97;;
14358;SDS011;7263;49.418;11.064;2024-03-23T03:03:00;4.60;;;4.03;;
14358;SDS011;7263;49.418;11.064;2024-03-23T03:05:28;5.87;;;4.43;;
14358;SDS011;7263;49.418;11.064;2024-03-23T03:07:57;4.73;;;4.13;;
14358;SDS011;7263;49.418;11.064;2024-03-23T03:10:24;6.60;;;4.77;;
14358;SDS011;7263;49.418;11.064;2024-03-23T03:13:01;5.10;;;4.57;;
14358;SDS011;7263;49.418;11.064;2024-03-23T03:15:35;4.97;;;4.47;;
14358;SDS011;7263;49.418;11.064;2024-03-23T03:18:01;4.70;;;4.30;;
14358;SDS011;7263;49.418;11.064;2024-03-23T03:20:31;6.70;;;4.80;;
14358;SDS011;7263;49.418;11.064;2024-03-23T03:22:57;6.23;;;4.60;;
14358;SDS011;7263;49.418;11.064;2024-03-23T03:25:27;5.67;;;4.80;;
14358;SDS011;7263;49.418;11.064;2024-03-23T03:27:56;6.67;;;4.40;;
14358;SDS011;7263;49.418;11.064;2024-03-23T03:30:27;8.83;;;4.50;;
14358;SDS011;7263;49.418;11.064;2024-03-23T03:32:59;5.40;;;4.90;;
14358;SDS011;7263;49.418;11.064;2024-03-23T03:35:34;5.57;;;4.70;;
14358;SDS011;7263;49.418;11.064;2024-03-23T03:38:02;7.10;;;4.97;;
14358;SDS011;7263;49.418;11.064;2024-03-23T03:40:31;7.60;;;4.30;;
14358;SDS011;7263;49.418;11.064;2024-03-23T03:43:06;4.93;;;4.40;;
14358;SDS011;7263;49.418;11.064;2024-03-23T03:45:40;6.80;;;4.50;;
14358;SDS011;7263;49.418;11.064;2024-03-23T03:48:08;6.57;;;4.50;;
14358;SDS011;7263;49.418;11.064;2024-03-23T03:50:35;7.43;;;4.67;;
14358;SDS011;7263;49.418;11.064;2024-03-23T03:53:01;5.97;;;5.23;;
14358;SDS011;7263;49.418;11.064;2024-03-23T03:55:28;6.70;;;5.27;;
14358;SDS011;7263;49.418;11.064;2024-03-23T03:57:54;6.73;;;5.90;;
14358;SDS011;7263;49.418;11.064;2024-03-23T04:00:24;10.70;;;5.53;;
14358;SDS011;7263;49.418;11.064;2024-03-23T04:02:53;5.77;;;4.97;;
14358;SDS011;7263;49.418;11.064;2024-03-23T04:05:23;13.37;;;8.40;;
14358;SDS011;7263;49.418;11.064;2024-03-23T04:07:49;7.83;;;5.67;;
14358;SDS011;7263;49.418;11.064;2024-03-23T04:10:19;8.13;;;5.30;;
14358;SDS011;7263;49.418;11.064;2024-03-23T04:12:45;6.03;;;5.00;;
14358;SDS011;7263;49.418;11.064;2024-03-23T04:15:12;7.13;;;5.70;;
14358;SDS011;7263;49.418;11.064;2024-03-23T04:17:41;7.10;;;5.03;;
14358;SDS011;7263;49.418;11.064;2024-03-23T04:20:10;8.67;;;6.23;;
14358;SDS011;7263;49.418;11.064;2024-03-23T04:22:47;7.93;;;5.87;;
14358;SDS011;7263;49.418;11.064;2024-03-23T04:25:14;7.73;;;5.37;;
14358;SDS011;7263;49.418;11.064;2024-03-23T04:27:44;6.53;;;5.83;;
14358;SDS011;7263;49.418;11.064;2024-03-23T04:30:12;8.53;;;6.13;;
14358;SDS011;7263;49.418;11.064;2024-03-23T04:32:41;8.97;;;5.73;;
14358;SDS011;7263;49.418;11.064;2024-03-23T04:35:14;5.83;;;5.20;;
14358;SDS011;7263;49.418;11.064;2024-03-23T04:37:54;11.13;;;7.80;;
14358;SDS011;7263;49.418;11.064;2024-03-23T04:40:23;8.40;;;6.33;;
14358;SDS011;7263;49.418;11.064;2024-03-23T04:42:53;6.23;;;5.60;;
14358;SDS011;7263;49.418;11.064;2024-03-23T04:45:22;6.97;;;5.87;;
14358;SDS011;7263;49.418;11.064;2024-03-23T04:47:49;6.87;;;6.03;;
14358;SDS011;7263;49.418;11.064;2024-03-23T04:50:16;8.00;;;6.20;;
14358;SDS011;7263;49.418;11.064;2024-03-23T04:52:43;6.43;;;5.13;;
14358;SDS011;7263;49.418;11.064;2024-03-23T04:55:12;7.00;;;6.27;;
14358;SDS011;7263;49.418;11.064;2024-03-23T04:57:39;9.43;;;6.97;;
14358;SDS011;7263;49.418;11.064;2024-03-23T05:00:11;9.20;;;6.90;;
14358;SDS011;7263;49.418;11.064;2024-03-23T05:02:43;6.17;;;5.50;;
14358;SDS011;7263;49.418;11.064;2024-03-23T05:05:20;8.47;;;6.13;;
14358;SDS011;7263;49.418;11.064;2024-03-23T05:07:46;7.37;;;6.20;;
14358;SDS011;7263;49.418;11.064;2024-03-23T05:10:17;6.30;;;5.30;;
14358;SDS011;7263;49.418;11.064;2024-03-23T05:12:42;9.40;;;5.77;;
14358;SDS011;7263;49.418;11.064;2024-03-23T05:15:13;7.67;;;5.80;;
14358;SDS011;7263;49.418;11.064;2024-03-23T05:17:38;7.03;;;5.20;;
14358;SDS011;7263;49.418;11.064;2024-03-23T05:20:11;7.67;;;5.40;;
14358;SDS011;7263;49.418;11.064;2024-03-23T05:22:39;8.67;;;5.30;;
14358;SDS011;7263;49.418;11.064;2024-03-23T05:25:06;6.13;;;4.60;;
14358;SDS011;7263;49.418;11.064;2024-03-23T05:27:41;5.97;;;4.83;;
14358;SDS011;7263;49.418;11.064;2024-03-23T05:30:08;6.63;;;4.53;;
14358;SDS011;7263;49.418;11.064;2024-03-23T05:32:37;7.23;;;5.00;;
14358;SDS011;7263;49.418;11.064;2024-03-23T05:35:10;5.20;;;4.50;;
14358;SDS011;7263;49.418;11.064;2024-03-23T05:37:36;5.63;;;4.60;;
14358;SDS011;7263;49.418;11.064;2024-03-23T05:40:04;5.63;;;4.57;;
14358;SDS011;7263;49.418;11.064;2024-03-23T05:42:30;4.87;;;4.07;;
14358;SDS011;7263;49.418;11.064;2024-03-23T05:45:04;5.40;;;4.40;;
14358;SDS011;7263;49.418;11.064;2024-03-23T05:47:31;5.37;;;4.10;;
14358;SDS011;7263;49.418;11.064;2024-03-23T05:50:00;5.13;;;4.30;;
14358;SDS011;7263;49.418;11.064;2024-03-23T05:52:26;7.50;;;3.97;;
14358;SDS011;7263;49.418;11.064;2024-03-23T05:55:01;4.33;;;3.67;;
14358;SDS011;7263;49.418;11.064;2024-03-23T05:57:26;4.63;;;3.67;;
14358;SDS011;7263;49.418;11.064;2024-03-23T05:59:56;4.20;;;3.57;;
14358;SDS011;7263;49.418;11.064;2024-03-23T06:02:24;5.00;;;3.80;;
14358;SDS011;7263;49.418;11.064;2024-03-23T06:04:56;5.10;;;3.70;;
14358;SDS011;7263;49.418;11.064;2024-03-23T06:07:22;4.77;;;4.10;;
14358;SDS011;7263;49.418;11.064;2024-03-23T06:09:49;4.83;;;3.73;;
14358;SDS011;7263;49.418;11.064;2024-03-23T06:12:17;4.53;;;3.03;;
14358;SDS011;7263;49.418;11.064;2024-03-23T06:14:46;3.57;;;2.77;;
14358;SDS011;7263;49.418;11.064;2024-03-23T06:17:14;4.63;;;3.40;;
14358;SDS011;7263;49.418;11.064;2024-03-23T06:19:44;4.13;;;3.40;;
14358;SDS011;7263;49.418;11.064;2024-03-23T06:22:10;7.03;;;4.33;;
14358;SDS011;7263;49.418;11.064;2024-03-23T06:24:39;6.47;;;4.53;;
14358;SDS011;7263;49.418;11.064;2024-03-23T06:27:04;5.43;;;4.93;;
14358;SDS011;7263;49.418;11.064;2024-03-23T06:29:35;8.40;;;5.07;;
14358;SDS011;7263;49.418;11.064;2024-03-23T06:32:07;7.67;;;6.30;;
14358;SDS011;7263;49.418;11.064;2024-03-23T06:34:34;6.53;;;5.77;;
14358;SDS011;7263;49.418;11.064;2024-03-23T06:37:09;6.43;;;5.70;;
14358;SDS011;7263;49.418;11.064;2024-03-23T06:39:52;7.83;;;6.63;;
14358;SDS011;7263;49.418;11.064;2024-03-23T06:42:30;8.73;;;6.23;;
14358;SDS011;7263;49.418;11.064;2024-03-23T06:44:56;8.80;;;6.77;;
14358;SDS011;7263;49.418;11.064;2024-03-23T06:47:23;8.40;;;6.93;;
14358;SDS011;7263;49.418;11.064;2024-03-23T06:49:55;7.83;;;6.33;;
14358;SDS011;7263;49.418;11.064;2024-03-23T06:52:28;9.87;;;6.53;;
14358;SDS011;7263;49.418;11.064;2024-03-23T06:55:01;7.00;;;6.20;;
14358;SDS011;7263;49.418;11.064;2024-03-23T06:57:29;7.70;;;6.33;;
14358;SDS011;7263;49.418;11.064;2024-03-23T06:59:57;9.07;;;5.77;;
14358;SDS011;7263;49.418;11.064;2024-03-23T07:02:22;7.03;;;6.30;;
14358;SDS011;7263;49.418;11.064;2024-03-23T07:04:54;8.33;;;6.33;;
14358;SDS011;7263;49.418;11.064;2024-03-23T07:07:21;7.93;;;5.90;;
14358;SDS011;7263;49.418;11.064;2024-03-23T07:09:50;7.97;;;6.70;;
14358;SDS011;7263;49.418;11.064;2024-03-23T07:12:18;8.83;;;6.67;;
14358;SDS011;7263;49.418;11.064;2024-03-23T07:14:48;8.67;;;5.67;;
14358;SDS011;7263;49.418;11.064;2024-03-23T07:17:14;9.47;;;7.07;;
14358;SDS011;7263;49.418;11.064;2024-03-23T07:19:43;8.80;;;7.00;;
14358;SDS011;7263;49.418;11.064;2024-03-23T07:22:12;5.80;;;5.07;;
14358;SDS011;7263;49.418;11.064;2024-03-23T07:24:42;6.07;;;5.23;;
14358;SDS011;7263;49.418;11.064;2024-03-23T07:27:09;7.30;;;5.37;;
14358;SDS011;7263;49.418;11.064;2024-03-23T07:29:36;10.97;;;7.93;;
14358;SDS011;7263;49.418;11.064;2024-03-23T07:32:04;5.97;;;5.13;;
14358;SDS011;7263;49.418;11.064;2024-03-23T07:34:32;6.87;;;5.20;;
14358;SDS011;7263;49.418;11.064;2024-03-23T07:36:58;8.80;;;5.40;;
14358;SDS011;7263;49.418;11.064;2024-03-23T07:39:27;7.07;;;5.20;;
14358;SDS011;7263;49.418;11.064;2024-03-23T07:41:53;5.80;;;5.20;;
14358;SDS011;7263;49.418;11.064;2024-03-23T07:44:22;6.20;;;5.40;;
14358;SDS011;7263;49.418;11.064;2024-03-23T07:46:48;5.50;;;4.87;;
14358;SDS011;7263;49.418;11.064;2024-03-23T07:49:18;5.90;;;5.03;;
14358;SDS011;7263;49.418;11.064;2024-03-23T07:51:46;6.83;;;6.03;;
14358;SDS011;7263;49.418;11.064;2024-03-23T07:54:13;7.37;;;5.40;;
14358;SDS011;7263;49.418;11.064;2024-03-23T07:56:42;6.67;;;5.20;;
14358;SDS011;7263;49.418;11.064;2024-03-23T07:59:12;8.67;;;5.60;;
14358;SDS011;7263;49.418;11.064;2024-03-23T08:01:44;9.03;;;5.13;;
14358;SDS011;7263;49.418;11.064;2024-03-23T08:04:11;5.97;;;4.40;;
14358;SDS011;7263;49.418;11.064;2024-03-23T08:06:39;6.13;;;4.57;;
14358;SDS011;7263;49.418;11.064;2024-03-23T08:09:09;7.90;;;6.17;;
14358;SDS011;7263;49.418;11.064;2024-03-23T08:11:35;10.93;;;7.07;;
14358;SDS011;7263;49.418;11.064;2024-03-23T08:14:07;5.10;;;4.10;;
14358;SDS011;7263;49.418;11.064;2024-03-23T08:16:41;5.67;;;4.80;;
14358;SDS011;7263;49.418;11.064;2024-03-23T08:19:13;7.10;;;4.47;;
14358;SDS011;7263;49.418;11.064;2024-03-23T08:21:49;7.83;;;4.17;;
14358;SDS011;7263;49.418;11.064;2024-03-23T08:24:19;5.43;;;3.90;;
14358;SDS011;7263;49.418;11.064;2024-03-23T08:26:46;3.33;;;2.70;;
14358;SDS011;7263;49.418;11.064;2024-03-23T08:29:16;2.70;;;2.43;;
14358;SDS011;7263;49.418;11.064;2024-03-23T08:31:43;2.47;;;2.27;;
14358;SDS011;7263;49.418;11.064;2024-03-23T08:34:10;2.33;;;2.10;;
14358;SDS011;7263;49.418;11.064;2024-03-23T08:36:36;2.70;;;2.33;;
14358;SDS011;7263;49.418;11.064;2024-03-23T08:39:20;3.67;;;2.33;;
14358;SDS011;7263;49.418;11.064;2024-03-23T08:41:47;3.13;;;2.20;;
14358;SDS011;7263;49.418;11.064;2024-03-23T08:44:16;2.97;;;2.63;;
14358;SDS011;7263;49.418;11.064;2024-03-23T08:46:55;2.97;;;2.37;;
14358;SDS011;7263;49.418;11.064;2024-03-23T08:49:24;2.83;;;2.40;;
14358;SDS011;7263;49.418;11.064;2024-03-23T08:51:51;2.10;;;1.90;;
14358;SDS011;7263;49.418;11.064;2024-03-23T08:54:20;1.97;;;1.77;;
14358;SDS011;7263;49.418;11.064;2024-03-23T08:56:48;2.20;;;1.70;;
14358;SDS011;7263;49.418;11.064;2024-03-23T08:59:14;2.00;;;1.80;;
14358;SDS011;7263;49.418;11.064;2024-03-23T09:01:48;1.63;;;1.53;;
14358;SDS011;7263;49.418;11.064;2024-03-23T09:04:17;1.60;;;1.50;;
14358;SDS011;7263;49.418;11.064;2024-03-23T09:06:46;2.17;;;1.60;;
14358;SDS011;7263;49.418;11.064;2024-03-23T09:09:16;1.20;;;1.10;;
14358;SDS011;7263;49.418;11.064;2024-03-23T09:11:48;1.20;;;1.10;;
14358;SDS011;7263;49.418;11.064;2024-03-23T09:14:14;2.70;;;1.10;;
14358;SDS011;7263;49.418;11.064;2024-03-23T09:16:44;1.40;;;1.30;;
14358;SDS011;7263;49.418;11.064;2024-03-23T09:19:10;1.30;;;1.20;;
14358;SDS011;7263;49.418;11.064;2024-03-23T09:21:41;1.10;;;0.90;;
14358;SDS011;7263;49.418;11.064;2024-03-23T09:24:08;1.10;;;1.00;;
14358;SDS011;7263;49.418;11.064;2024-03-23T09:26:44;1.33;;;1.20;;
14358;SDS011;7263;49.418;11.064;2024-03-23T09:29:09;2.73;;;1.10;;
14358;SDS011;7263;49.418;11.064;2024-03-23T09:31:36;0.93;;;0.90;;
14358;SDS011;7263;49.418;11.064;2024-03-23T09:34:03;0.50;;;0.50;;
14358;SDS011;7263;49.418;11.064;2024-03-23T09:36:31;0.63;;;0.63;;
14358;SDS011;7263;49.418;11.064;2024-03-23T09:38:58;0.80;;;0.60;;
14358;SDS011;7263;49.418;11.064;2024-03-23T09:41:28;0.93;;;0.40;;
14358;SDS011;7263;49.418;11.064;2024-03-23T09:43:54;0.37;;;0.37;;
14358;SDS011;7263;49.418;11.064;2024-03-23T09:46:21;0.60;;;0.30;;
14358;SDS011;7263;49.418;11.064;2024-03-23T09:48:54;0.37;;;0.30;;
14358;SDS011;7263;49.418;11.064;2024-03-23T09:51:35;0.20;;;0.20;;
14358;SDS011;7263;49.418;11.064;2024-03-23T09:54:12;0.50;;;0.20;;
14358;SDS011;7263;49.418;11.064;2024-03-23T09:56:37;0.13;;;0.10;;
14358;SDS011;7263;49.418;11.064;2024-03-23T09:59:05;1.40;;;0.50;;
14358;SDS011;7263;49.418;11.064;2024-03-23T10:01:34;0.50;;;0.50;;
14358;SDS011;7263;49.418;11.064;2024-03-23T10:04:04;0.30;;;0.30;;
14358;SDS011;7263;49.418;11.064;2024-03-23T10:06:30;0.50;;;0.43;;
14358;SDS011;7263;49.418;11.064;2024-03-23T10:08:57;1.00;;;0.40;;
14358;SDS011;7263;49.418;11.064;2024-03-23T10:11:27;3.20;;;0.43;;
14358;SDS011;7263;49.418;11.064;2024-03-23T10:13:56;0.27;;;0.27;;
14358;SDS011;7263;49.418;11.064;2024-03-23T10:16:25;0.70;;;0.70;;
14358;SDS011;7263;49.418;11.064;2024-03-23T10:19:01;0.80;;;0.40;;
14358;SDS011;7263;49.418;11.064;2024-03-23T10:21:30;0.50;;;0.50;;
14358;SDS011;7263;49.418;11.064;2024-03-23T10:24:07;2.77;;;2.57;;
14358;SDS011;7263;49.418;11.064;2024-03-23T10:26:35;1.30;;;1.20;;
14358;SDS011;7263;49.418;11.064;2024-03-23T10:29:02;0.60;;;0.40;;
14358;SDS011;7263;49.418;11.064;2024-03-23T10:31:33;0.80;;;0.80;;
14358;SDS011;7263;49.418;11.064;2024-03-23T10:34:02;2.07;;;0.70;;
14358;SDS011;7263;49.418;11.064;2024-03-23T10:36:33;0.50;;;0.50;;
14358;SDS011;7263;49.418;11.064;2024-03-23T10:39:08;1.00;;;0.80;;
14358;SDS011;7263;49.418;11.064;2024-03-23T10:41:38;0.73;;;0.60;;
14358;SDS011;7263;49.418;11.064;2024-03-23T10:44:15;0.50;;;0.50;;
14358;SDS011;7263;49.418;11.064;2024-03-23T10:46:44;1.13;;;1.00;;
14358;SDS011;7263;49.418;11.064;2024-03-23T10:49:11;1.10;;;0.70;;
14358;SDS011;7263;49.418;11.064;2024-03-23T10:51:37;1.30;;;0.97;;
14358;SDS011;7263;49.418;11.064;2024-03-23T10:54:21;1.13;;;0.90;;
14358;SDS011;7263;49.418;11.064;2024-03-23T10:57:08;0.90;;;0.80;;
14358;SDS011;7263;49.418;11.064;2024-03-23T10:59:55;1.67;;;0.80;;
14358;SDS011;7263;49.418;11.064;2024-03-23T11:02:24;0.87;;;0.80;;
14358;SDS011;7263;49.418;11.064;2024-03-23T11:04:52;1.20;;;1.00;;
14358;SDS011;7263;49.418;11.064;2024-03-23T11:07:31;1.90;;;1.00;;
14358;SDS011;7263;49.418;11.064;2024-03-23T11:10:01;3.03;;;1.00;;
14358;SDS011;7263;49.418;11.064;2024-03-23T11:12:32;1.40;;;0.80;;
14358;SDS011;7263;49.418;11.064;2024-03-23T11:15:05;2.03;;;1.53;;
14358;SDS011;7263;49.418;11.064;2024-03-23T11:17:37;1.90;;;1.70;;
14358;SDS011;7263;49.418;11.064;2024-03-23T11:20:04;4.07;;;2.73;;
14358;SDS011;7263;49.418;11.064;2024-03-23T11:22:37;2.90;;;1.60;;
14358;SDS011;7263;49.418;11.064;2024-03-23T11:25:14;5.70;;;3.43;;
14358;SDS011;7263;49.418;11.064;2024-03-23T11:27:44;3.70;;;1.53;;
14358;SDS011;7263;49.418;11.064;2024-03-23T11:30:20;2.57;;;1.60;;
14358;SDS011;7263;49.418;11.064;2024-03-23T11:32:50;1.57;;;1.40;;
14358;SDS011;7263;49.418;11.064;2024-03-23T11:35:29;2.67;;;1.60;;
14358;SDS011;7263;49.418;11.064;2024-03-23T11:38:06;1.40;;;1.20;;
14358;SDS011;7263;49.418;11.064;2024-03-23T11:40:37;3.43;;;1.40;;
14358;SDS011;7263;49.418;11.064;2024-03-23T11:43:08;2.93;;;1.70;;
14358;SDS011;7263;49.418;11.064;2024-03-23T11:45:47;4.63;;;1.47;;
14358;SDS011;7263;49.418;11.064;2024-03-23T11:48:23;2.57;;;1.60;;
14358;SDS011;7263;49.418;11.064;2024-03-23T11:50:53;3.63;;;1.90;;
14358;SDS011;7263;49.418;11.064;2024-03-23T11:53:21;2.53;;;1.50;;
14358;SDS011;7263;49.418;11.064;2024-03-23T11:55:49;1.83;;;1.30;;
14358;SDS011;7263;49.418;11.064;2024-03-23T11:58:17;18.27;;;12.30;;
14358;SDS011;7263;49.418;11.064;2024-03-23T12:01:00;7.83;;;5.23;;
14358;SDS011;7263;49.418;11.064;2024-03-23T12:03:27;2.90;;;1.83;;
14358;SDS011;7263;49.418;11.064;2024-03-23T12:06:01;2.87;;;1.57;;
14358;SDS011;7263;49.418;11.064;2024-03-23T12:08:29;2.23;;;1.40;;
14358;SDS011;7263;49.418;11.064;2024-03-23T12:11:07;2.23;;;1.70;;
14358;SDS011;7263;49.418;11.064;2024-03-23T12:13:43;4.83;;;1.43;;
14358;SDS011;7263;49.418;11.064;2024-03-23T12:16:20;2.07;;;1.20;;
14358;SDS011;7263;49.418;11.064;2024-03-23T12:18:50;2.37;;;1.60;;
14358;SDS011;7263;49.418;11.064;2024-03-23T12:21:25;3.33;;;2.17;;
14358;SDS011;7263;49.418;11.064;2024-03-23T12:23:51;4.13;;;2.03;;
14358;SDS011;7263;49.418;11.064;2024-03-23T12:26:18;3.73;;;2.00;;
14358;SDS011;7263;49.418;11.064;2024-03-23T12:28:47;4.33;;;2.03;;
14358;SDS011;7263;49.418;11.064;2024-03-23T12:31:20;2.83;;;2.00;;
14358;SDS011;7263;49.418;11.064;2024-03-23T12:33:46;2.97;;;1.50;;
14358;SDS011;7263;49.418;11.064;2024-03-23T12:36:18;2.53;;;1.40;;
14358;SDS011;7263;49.418;11.064;2024-03-23T12:38:44;3.57;;;1.73;;
14358;SDS011;7263;49.418;11.064;2024-03-23T12:41:11;3.63;;;1.80;;
14358;SDS011;7263;49.418;11.064;2024-03-23T12:43:39;1.87;;;1.60;;
14358;SDS011;7263;49.418;11.064;2024-03-23T12:46:10;1.93;;;1.50;;
14358;SDS011;7263;49.418;11.064;2024-03-23T12:48:38;3.47;;;1.40;;
14358;SDS011;7263;49.418;11.064;2024-03-23T12:51:06;3.70;;;1.77;;
14358;SDS011;7263;49.418;11.064;2024-03-23T12:53:32;3.40;;;1.80;;
14358;SDS011;7263;49.418;11.064;2024-03-23T12:56:04;2.77;;;1.60;;
14358;SDS011;7263;49.418;11.064;2024-03-23T12:58:30;2.37;;;1.60;;
14358;SDS011;7263;49.418;11.064;2024-03-23T13:01:00;2.93;;;1.60;;
14358;SDS011;7263;49.418;11.064;2024-03-23T13:03:39;3.60;;;1.60;;
14358;SDS011;7263;49.418;11.064;2024-03-23T13:06:12;3.70;;;1.87;;
14358;SDS011;7263;49.418;11.064;2024-03-23T13:08:38;3.00;;;1.80;;
14358;SDS011;7263;49.418;11.064;2024-03-23T13:11:12;5.27;;;1.83;;
14358;SDS011;7263;49.418;11.064;2024-03-23T13:13:43;4.35;;;1.75;;
14358;SDS011;7263;49.418;11.064;2024-03-23T13:16:10;4.57;;;1.87;;
14358;SDS011;7263;49.418;11.064;2024-03-23T13:18:36;3.77;;;1.80;;
14358;SDS011;7263;49.418;11.064;2024-03-23T13:21:04;6.40;;;2.00;;
14358;SDS011;7263;49.418;11.064;2024-03-23T13:23:30;2.40;;;1.73;;
14358;SDS011;7263;49.418;11.064;2024-03-23T13:26:00;3.70;;;1.83;;
14358;SDS011;7263;49.418;11.064;2024-03-23T13:28:28;3.53;;;1.63;;
14358;SDS011;7263;49.418;11.064;2024-03-23T13:30:57;3.90;;;2.07;;
14358;SDS011;7263;49.418;11.064;2024-03-23T13:33:28;3.30;;;1.70;;
14358;SDS011;7263;49.418;11.064;2024-03-23T13:36:01;2.57;;;1.70;;
14358;SDS011;7263;49.418;11.064;2024-03-23T13:38:32;4.07;;;1.90;;
14358;SDS011;7263;49.418;11.064;2024-03-23T13:40:59;3.30;;;1.77;;
14358;SDS011;7263;49.418;11.064;2024-03-23T13:43:26;4.70;;;1.80;;
14358;SDS011;7263;49.418;11.064;2024-03-23T13:45:54;2.97;;;1.80;;
14358;SDS011;7263;49.418;11.064;2024-03-23T13:48:20;4.30;;;3.33;;
14358;SDS011;7263;49.418;11.064;2024-03-23T13:50:58;2.30;;;1.50;;
14358;SDS011;7263;49.418;11.064;2024-03-23T13:53:24;3.33;;;1.80;;
14358;SDS011;7263;49.418;11.064;2024-03-23T13:56:03;3.50;;;1.70;;
14358;SDS011;7263;49.418;11.064;2024-03-23T13:58:29;3.37;;;1.80;;
14358;SDS011;7263;49.418;11.064;2024-03-23T14:01:00;3.73;;;2.00;;
14358;SDS011;7263;49.418;11.064;2024-03-23T14:03:34;4.77;;;2.30;;
14358;SDS011;7263;49.418;11.064;2024-03-23T14:06:01;5.07;;;2.47;;
14358;SDS011;7263;49.418;11.064;2024-03-23T14:08:28;4.37;;;2.20;;
14358;SDS011;7263;49.418;11.064;2024-03-23T14:10:58;4.83;;;2.33;;
14358;SDS011;7263;49.418;11.064;2024-03-23T14:13:25;2.17;;;1.47;;
14358;SDS011;7263;49.418;11.064;2024-03-23T14:15:52;5.93;;;1.60;;
14358;SDS011;7263;49.418;11.064;2024-03-23T14:18:18;2.00;;;1.60;;
14358;SDS011;7263;49.418;11.064;2024-03-23T14:20:47;4.27;;;2.00;;
14358;SDS011;7263;49.418;11.064;2024-03-23T14:23:13;6.77;;;5.33;;
14358;SDS011;7263;49.418;11.064;2024-03-23T14:25:43;3.83;;;2.23;;
14358;SDS011;7263;49.418;11.064;2024-03-23T14:28:10;4.97;;;2.57;;
14358;SDS011;7263;49.418;11.064;2024-03-23T14:30:41;2.87;;;1.70;;
14358;SDS011;7263;49.418;11.064;2024-03-23T14:33:08;6.00;;;3.33;;
14358;SDS011;7263;49.418;11.064;2024-03-23T14:35:38;3.30;;;1.70;;
14358;SDS011;7263;49.418;11.064;2024-03-23T14:38:05;2.60;;;1.60;;
14358;SDS011;7263;49.418;11.064;2024-03-23T14:40:41;7.80;;;1.97;;
14358;SDS011;7263;49.418;11.064;2024-03-23T14:43:08;1.63;;;1.40;;
14358;SDS011;7263;49.418;11.064;2024-03-23T14:45:35;2.33;;;1.53;;
14358;SDS011;7263;49.418;11.064;2024-03-23T14:48:03;3.07;;;1.70;;
14358;SDS011;7263;49.418;11.064;2024-03-23T14:50:30;4.90;;;1.97;;
14358;SDS011;7263;49.418;11.064;2024-03-23T14:52:59;2.80;;;1.47;;
14358;SDS011;7263;49.418;11.064;2024-03-23T14:55:30;3.70;;;1.77;;
14358;SDS011;7263;49.418;11.064;2024-03-23T14:57:56;4.23;;;1.40;;
14358;SDS011;7263;49.418;11.064;2024-03-23T15:00:26;3.90;;;1.80;;
14358;SDS011;7263;49.418;11.064;2024-03-23T15:02:58;4.50;;;2.60;;
14358;SDS011;7263;49.418;11.064;2024-03-23T15:05:37;3.87;;;2.60;;
14358;SDS011;7263;49.418;11.064;2024-03-23T15:08:03;4.70;;;2.27;;
14358;SDS011;7263;49.418;11.064;2024-03-23T15:10:32;5.87;;;2.10;;
14358;SDS011;7263;49.418;11.064;2024-03-23T15:12:59;2.70;;;1.70;;
14358;SDS011;7263;49.418;11.064;2024-03-23T15:15:28;5.90;;;3.30;;
14358;SDS011;7263;49.418;11.064;2024-03-23T15:17:55;3.40;;;2.20;;
14358;SDS011;7263;49.418;11.064;2024-03-23T15:20:24;5.00;;;2.30;;
14358;SDS011;7263;49.418;11.064;2024-03-23T15:22:53;21.80;;;15.87;;
14358;SDS011;7263;49.418;11.064;2024-03-23T15:25:22;13.83;;;10.53;;
14358;SDS011;7263;49.418;11.064;2024-03-23T15:27:49;2.40;;;2.13;;
14358;SDS011;7263;49.418;11.064;2024-03-23T15:30:16;5.53;;;2.83;;
14358;SDS011;7263;49.418;11.064;2024-03-23T15:32:42;2.90;;;2.43;;
14358;SDS011;7263;49.418;11.064;2024-03-23T15:35:17;3.90;;;2.30;;
14358;SDS011;7263;49.418;11.064;2024-03-23T15:37:47;2.57;;;2.00;;
14358;SDS011;7263;49.418;11.064;2024-03-23T15:40:21;2.37;;;1.53;;
14358;SDS011;7263;49.418;11.064;2024-03-23T15:42:49;2.77;;;1.50;;
14358;SDS011;7263;49.418;11.064;2024-03-23T15:45:15;2.97;;;1.90;;
14358;SDS011;7263;49.418;11.064;2024-03-23T15:47:44;1.80;;;1.70;;
14358;SDS011;7263;49.418;11.064;2024-03-23T15:50:11;2.93;;;1.70;;
14358;SDS011;7263;49.418;11.064;2024-03-23T15:52:37;2.67;;;1.70;;
14358;SDS011;7263;49.418;11.064;2024-03-23T15:55:04;2.93;;;1.93;;